Time;durP1;ratioP1;P1;durP2;ratioP2;P2;SDS_P1;SDS_P2;PMS_P1;PMS_P2;Temp;Humidity;BMP_temperature;BMP_pressure;BME280_temperature;BME280_humidity;BME280_pressure;Samples;Min_cycle;Max_cycle;Signal;HPM_P1;HPM_P2
2021/05/09 00:00:04;;;;;;;42.93;31.47;;;;;;;4.09;68.39;99307.86;124915;1101;64544;-82
2021/05/09 00:02:51;;;;;;;41.55;31.05;;;;;;;4.08;68.18;99314.92;124911;1096;64332;-82
2021/05/09 00:05:18;;;;;;;47.70;32.77;;;;;;;4.07;68.38;99313.18;124822;1101;64472;-82
2021/05/09 00:07:46;;;;;;;45.77;31.47;;;;;;;4.07;68.42;99317.59;124801;1101;64336;-82
2021/05/09 00:10:14;;;;;;;47.50;33.43;;;;;;;4.05;68.50;99311.51;124815;1097;64326;-82
2021/05/09 00:12:42;;;;;;;47.93;34.20;;;;;;;4.03;68.63;99302.78;124859;1101;64387;-82
2021/05/09 00:15:12;;;;;;;43.77;33.23;;;;;;;4.00;68.82;99301.12;124881;1097;64345;-83
2021/05/09 00:17:40;;;;;;;49.95;35.53;;;;;;;3.96;68.93;99297.73;124808;1096;64365;-82
2021/05/09 00:20:09;;;;;;;50.25;34.70;;;;;;;3.94;68.64;99296.92;124800;1101;64278;-82
2021/05/09 00:22:37;;;;;;;51.43;36.43;;;;;;;3.91;68.87;99296.18;124876;1101;64654;-83
2021/05/09 00:25:06;;;;;;;49.00;35.27;;;;;;;3.89;69.05;99296.22;124910;1095;64393;-83
2021/05/09 00:27:33;;;;;;;55.40;36.30;;;;;;;3.90;69.12;99289.20;125001;1096;64337;-81
2021/05/09 00:30:00;;;;;;;49.57;37.37;;;;;;;3.92;69.07;99289.98;124831;1097;64396;-83
2021/05/09 00:32:28;;;;;;;50.77;37.27;;;;;;;3.94;69.26;99296.92;124845;1096;64362;-84
2021/05/09 00:34:55;;;;;;;51.83;37.60;;;;;;;3.93;69.33;99294.36;124829;1101;64326;-82
2021/05/09 00:37:22;;;;;;;57.87;38.17;;;;;;;3.94;69.37;99296.06;124789;1101;64463;-82
2021/05/09 00:39:49;;;;;;;56.03;38.00;;;;;;;3.94;69.43;99296.06;124840;1101;64534;-82
2021/05/09 00:42:17;;;;;;;49.17;37.57;;;;;;;3.90;69.50;99290.05;124870;1101;64335;-81
2021/05/09 00:44:44;;;;;;;57.07;38.40;;;;;;;3.86;69.58;99288.42;124856;1101;64365;-82
2021/05/09 00:47:13;;;;;;;52.95;37.20;;;;;;;3.82;69.51;99289.46;124849;1096;64303;-81
2021/05/09 00:49:41;;;;;;;52.10;36.30;;;;;;;3.76;69.68;99294.92;124858;1097;64488;-82
2021/05/09 00:52:12;;;;;;;52.13;36.50;;;;;;;3.72;69.90;99285.42;124901;1096;64343;-82
2021/05/09 00:54:56;;;;;;;50.40;35.07;;;;;;;3.69;70.09;99294.29;124861;1097;64256;-82
2021/05/09 00:57:24;;;;;;;49.35;36.20;;;;;;;3.67;69.95;99290.84;124924;1096;64281;-82
2021/05/09 00:59:53;;;;;;;64.53;44.07;;;;;;;3.64;70.03;99293.59;124897;1097;64267;-81
2021/05/09 01:02:20;;;;;;;58.20;41.70;;;;;;;3.61;70.07;99298.11;124976;1101;64442;-82
2021/05/09 01:04:48;;;;;;;62.90;43.67;;;;;;;3.57;70.17;99288.57;124922;1095;64339;-82
2021/05/09 01:07:17;;;;;;;60.00;44.07;;;;;;;3.51;70.46;99294.91;124840;1101;64335;-82
2021/05/09 01:09:44;;;;;;;59.63;41.97;;;;;;;3.49;70.94;99294.09;124835;1096;64307;-82
2021/05/09 01:12:12;;;;;;;61.03;45.00;;;;;;;3.44;70.83;99298.66;124813;1101;64361;-82
2021/05/09 01:14:41;;;;;;;65.80;46.47;;;;;;;3.38;70.78;99297.09;124842;1101;64335;-83
2021/05/09 01:17:09;;;;;;;63.07;43.33;;;;;;;3.36;70.87;99295.41;124845;1097;64345;-82
2021/05/09 01:19:37;;;;;;;68.77;45.07;;;;;;;3.36;70.97;99295.41;124907;1097;64358;-82
2021/05/09 01:22:10;;;;;;;57.87;38.97;;;;;;;3.37;71.09;99289.22;124916;1101;64319;-83
2021/05/09 01:24:39;;;;;;;66.67;44.57;;;;;;;3.39;71.21;99296.16;124950;1101;64288;-83
2021/05/09 01:27:07;;;;;;;50.43;34.93;;;;;;;3.40;71.26;99290.00;124865;1101;64235;-82
2021/05/09 01:29:35;;;;;;;49.27;34.50;;;;;;;3.43;71.11;99287.26;124880;1101;64339;-81
2021/05/09 01:32:07;;;;;;;49.90;36.50;;;;;;;3.45;71.05;99293.34;124819;1096;64341;-83
2021/05/09 01:34:36;;;;;;;49.03;34.83;;;;;;;3.41;71.13;99286.44;124871;1097;64252;-83
2021/05/09 01:37:05;;;;;;;57.03;38.87;;;;;;;3.40;71.03;99289.14;124843;1101;64240;-83
2021/05/09 01:39:33;;;;;;;52.93;38.50;;;;;;;3.39;71.24;99287.41;124892;1101;64303;-83
2021/05/09 01:42:02;;;;;;;46.37;35.27;;;;;;;3.37;71.00;99283.95;124951;1096;64332;-83
2021/05/09 01:44:29;;;;;;;41.93;32.90;;;;;;;3.37;71.34;99281.31;124960;1101;64327;-83
2021/05/09 01:46:57;;;;;;;42.80;31.47;;;;;;;3.36;71.57;99280.46;124851;1097;64333;-83
2021/05/09 01:49:24;;;;;;;39.17;29.40;;;;;;;3.40;71.33;99284.73;124820;1101;64262;-82
2021/05/09 01:51:51;;;;;;;42.70;31.07;;;;;;;3.43;71.37;99276.72;124817;1096;64504;-82
2021/05/09 01:54:18;;;;;;;43.80;31.80;;;;;;;3.47;71.32;99283.59;124802;1101;64641;-83
2021/05/09 01:56:45;;;;;;;44.00;31.17;;;;;;;3.48;71.32;99276.58;124936;1101;64425;-82
2021/05/09 01:59:12;;;;;;;42.20;31.20;;;;;;;3.48;71.64;99269.52;124891;1101;64376;-82
2021/05/09 02:01:40;;;;;;;39.07;30.53;;;;;;;3.48;71.58;99274.80;124854;1096;64374;-82
2021/05/09 02:04:07;;;;;;;42.20;31.60;;;;;;;3.47;71.35;99269.56;124918;1101;64408;-82
2021/05/09 02:06:34;;;;;;;42.50;30.63;;;;;;;3.44;71.47;99267.03;124906;1101;64430;-82
2021/05/09 02:09:01;;;;;;;44.77;33.00;;;;;;;3.46;71.62;99268.71;124833;1096;64303;-83
2021/05/09 02:11:28;;;;;;;43.40;31.77;;;;;;;3.44;71.74;99259.98;124839;1101;64281;-83
2021/05/09 02:13:56;;;;;;;45.47;34.73;;;;;;;3.44;72.02;99265.26;124831;1096;64434;-83
2021/05/09 02:16:23;;;;;;;49.37;34.27;;;;;;;3.43;71.77;99267.97;124879;1101;64264;-83
2021/05/09 02:18:50;;;;;;;49.23;34.20;;;;;;;3.40;71.79;99263.66;124989;1101;64275;-83
2021/05/09 02:21:17;;;;;;;46.97;35.60;;;;;;;3.39;72.01;99268.97;124943;1097;64426;-83
2021/05/09 02:23:44;;;;;;;47.30;35.35;;;;;;;3.35;72.02;99260.31;124892;1096;64425;-83
2021/05/09 02:26:12;;;;;;;48.50;34.60;;;;;;;3.34;72.05;99255.94;124834;1101;64342;-83
2021/05/09 02:28:39;;;;;;;44.57;33.43;;;;;;;3.34;72.16;99266.47;124786;1096;64374;-83
2021/05/09 02:31:06;;;;;;;42.30;30.63;;;;;;;3.37;72.35;99273.41;124915;1101;64332;-82
2021/05/09 02:33:33;;;;;;;40.60;30.83;;;;;;;3.39;72.10;99266.33;124819;1101;64732;-82
2021/05/09 02:36:01;;;;;;;38.33;28.57;;;;;;;3.40;72.49;99268.07;124877;1095;64338;-82
2021/05/09 02:38:28;;;;;;;39.63;29.87;;;;;;;3.46;72.11;99265.22;124846;1095;64724;-82
2021/05/09 02:40:55;;;;;;;42.90;29.97;;;;;;;3.45;72.24;99261.73;124841;1096;64384;-82
2021/05/09 02:43:22;;;;;;;40.47;30.57;;;;;;;3.47;72.05;99265.15;124847;1096;64329;-83
2021/05/09 02:45:49;;;;;;;49.70;35.27;;;;;;;3.47;72.26;99265.15;124813;1096;64332;-82
2021/05/09 02:48:17;;;;;;;55.77;38.43;;;;;;;3.45;72.14;99253.83;124836;1097;64344;-82
2021/05/09 02:50:44;;;;;;;47.43;33.73;;;;;;;3.46;71.94;99257.31;124868;1101;64323;-82
2021/05/09 02:53:11;;;;;;;39.10;28.93;;;;;;;3.43;72.06;99252.16;124839;1101;64328;-82
2021/05/09 02:55:38;;;;;;;35.47;25.57;;;;;;;3.45;72.14;99256.46;124866;1101;64483;-82
2021/05/09 02:58:05;;;;;;;36.55;26.10;;;;;;;3.48;71.94;99261.63;124888;1096;64441;-82
2021/05/09 03:00:32;;;;;;;38.23;25.93;;;;;;;3.52;72.01;99254.46;124800;1101;64255;-83
2021/05/09 03:03:00;;;;;;;39.57;27.47;;;;;;;3.58;72.01;99254.27;124882;1096;64255;-83
2021/05/09 03:05:28;;;;;;;35.57;26.67;;;;;;;3.60;71.97;99254.20;124872;1101;64377;-83
2021/05/09 03:07:55;;;;;;;35.50;26.60;;;;;;;3.64;71.78;99251.42;124863;1101;64329;-82
2021/05/09 03:10:23;;;;;;;34.57;25.80;;;;;;;3.69;71.69;99257.39;124895;1096;64325;-82
2021/05/09 03:12:50;;;;;;;38.10;27.03;;;;;;;3.73;71.64;99255.50;124854;1101;64284;-82
2021/05/09 03:15:17;;;;;;;33.47;24.73;;;;;;;3.79;71.55;99254.42;124822;1101;64339;-83
2021/05/09 03:17:45;;;;;;;34.63;25.60;;;;;;;3.86;71.27;99259.42;124795;1095;64334;-83
2021/05/09 03:20:12;;;;;;;32.05;24.40;;;;;;;3.93;71.30;99258.30;124849;1096;64371;-82
2021/05/09 03:22:39;;;;;;;32.27;22.83;;;;;;;4.03;71.10;99252.68;124880;1095;64326;-82
2021/05/09 03:25:07;;;;;;;31.00;22.87;;;;;;;4.12;70.92;99253.22;124871;1101;64355;-82
2021/05/09 03:27:34;;;;;;;34.13;24.77;;;;;;;4.21;70.94;99257.28;124881;1097;64336;-83
2021/05/09 03:30:01;;;;;;;30.73;24.23;;;;;;;4.31;70.77;99250.75;124850;1101;64329;-83
2021/05/09 03:32:28;;;;;;;35.57;25.70;;;;;;;4.41;70.54;99253.92;124820;1101;64420;-84
2021/05/09 03:34:56;;;;;;;33.20;23.63;;;;;;;4.51;70.60;99254.44;124847;1096;64406;-82
2021/05/09 03:37:23;;;;;;;30.40;23.30;;;;;;;4.61;70.08;99258.45;124842;1101;64328;-84
2021/05/09 03:39:50;;;;;;;31.83;22.63;;;;;;;4.72;69.92;99258.89;124827;1101;64240;-83
2021/05/09 03:42:17;;;;;;;31.57;21.70;;;;;;;4.87;69.94;99261.83;124972;1101;64394;-83
2021/05/09 03:44:44;;;;;;;28.77;21.90;;;;;;;4.98;69.54;99263.14;124891;1101;64333;-83
2021/05/09 03:47:12;;;;;;;30.27;22.00;;;;;;;5.14;69.56;99260.75;124964;1102;64933;-83
2021/05/09 03:49:39;;;;;;;25.93;20.70;;;;;;;5.70;68.79;99252.22;124959;1101;64243;-83
2021/05/09 03:52:06;;;;;;;26.70;20.73;;;;;;;5.87;68.22;99258.56;124995;1101;64358;-83
2021/05/09 03:54:33;;;;;;;28.83;21.37;;;;;;;5.77;68.48;99267.84;124865;1101;64508;-81
2021/05/09 03:57:00;;;;;;;27.33;19.83;;;;;;;5.72;68.42;99258.31;124819;1101;64367;-83
2021/05/09 03:59:27;;;;;;;26.43;20.00;;;;;;;5.69;68.18;99265.53;124813;1097;64422;-83
2021/05/09 04:01:55;;;;;;;28.57;20.50;;;;;;;5.69;68.21;99269.03;124801;1101;64239;-83
2021/05/09 04:04:22;;;;;;;26.03;19.57;;;;;;;5.71;67.79;99279.52;124845;1101;64278;-83
2021/05/09 04:06:49;;;;;;;28.30;19.63;;;;;;;5.72;67.89;99274.18;124829;1101;64400;-83
2021/05/09 04:09:16;;;;;;;26.85;20.20;;;;;;;5.77;67.70;99268.70;124855;1101;64483;-83
2021/05/09 04:11:44;;;;;;;30.33;21.47;;;;;;;5.83;67.56;99259.64;124834;1096;64374;-83
2021/05/09 04:14:11;;;;;;;32.57;22.00;;;;;;;5.91;67.49;99268.95;124797;1096;64326;-82
2021/05/09 04:16:38;;;;;;;31.73;22.33;;;;;;;5.99;67.00;99276.59;124858;1095;64306;-84
2021/05/09 04:19:05;;;;;;;30.97;22.13;;;;;;;6.04;66.70;99264.02;124810;1101;64361;-82
2021/05/09 04:21:32;;;;;;;30.20;22.90;;;;;;;6.09;66.78;99269.97;124937;1101;64272;-81
2021/05/09 04:23:59;;;;;;;30.33;22.50;;;;;;;6.13;66.51;99266.27;124830;1095;64358;-82
2021/05/09 04:26:27;;;;;;;29.03;22.33;;;;;;;6.20;66.42;99265.99;124809;1097;64428;-83
2021/05/09 04:28:54;;;;;;;29.23;21.93;;;;;;;6.24;66.41;99271.09;124845;1101;64303;-83
2021/05/09 04:31:21;;;;;;;26.83;21.70;;;;;;;6.22;66.16;99270.29;124831;1096;64440;-83
2021/05/09 04:33:48;;;;;;;29.07;21.57;;;;;;;6.19;66.27;99281.02;124800;1095;64329;-83
2021/05/09 04:36:15;;;;;;;28.37;21.43;;;;;;;6.17;66.05;99280.22;124856;1096;64332;-83
2021/05/09 04:38:42;;;;;;;31.77;22.00;;;;;;;6.47;65.82;99275.31;124837;1096;64358;-82
2021/05/09 04:41:10;;;;;;;30.17;23.57;;;;;;;7.66;64.29;99271.38;124821;1096;64323;-83
2021/05/09 04:43:38;;;;;;;29.23;23.70;;;;;;;8.96;62.75;99260.94;124808;1096;64362;-83
2021/05/09 04:46:06;;;;;;;29.23;23.60;;;;;;;10.00;60.92;99263.80;124824;1101;64454;-82
2021/05/09 04:48:33;;;;;;;29.03;23.97;;;;;;;10.78;59.92;99260.81;124864;1101;64361;-82
2021/05/09 04:51:00;;;;;;;27.97;22.97;;;;;;;11.36;58.14;99259.70;124828;1101;64299;-82
2021/05/09 04:53:31;;;;;;;25.80;23.10;;;;;;;11.83;57.50;99248.51;124876;1097;64409;-83
2021/05/09 04:56:01;;;;;;;26.35;21.65;;;;;;;12.27;56.15;99247.30;124865;1097;64339;-83
2021/05/09 04:58:29;;;;;;;25.45;21.43;;;;;;;12.71;55.37;99250.45;124964;1096;64312;-83
2021/05/09 05:01:00;;;;;;;28.00;22.03;;;;;;;13.04;54.01;99241.81;124848;1097;64247;-82
2021/05/09 05:03:31;;;;;;;25.43;22.00;;;;;;;13.44;54.55;99248.75;124898;1096;64281;-82
2021/05/09 05:05:59;;;;;;;22.77;20.30;;;;;;;13.90;52.14;99240.77;124872;1101;64364;-82
2021/05/09 05:08:31;;;;;;;23.60;19.90;;;;;;;14.15;53.02;99241.55;124826;1101;64296;-82
2021/05/09 05:11:04;;;;;;;25.10;20.07;;;;;;;14.39;52.20;99242.30;124837;1101;64338;-82
2021/05/09 05:13:33;;;;;;;21.77;19.07;;;;;;;14.64;51.43;99235.02;124842;1101;64319;-82
2021/05/09 05:16:03;;;;;;;22.30;19.85;;;;;;;14.86;50.50;99226.11;124929;1101;64328;-82
2021/05/09 05:18:31;;;;;;;22.60;19.67;;;;;;;15.10;49.99;99220.57;124957;1101;64306;-82
2021/05/09 05:21:02;;;;;;;21.20;18.80;;;;;;;15.33;49.69;99224.90;124847;1096;64323;-82
2021/05/09 05:23:30;;;;;;;19.67;17.47;;;;;;;15.59;49.15;99229.94;124821;1101;64398;-82
2021/05/09 05:25:58;;;;;;;22.77;19.17;;;;;;;15.68;48.08;99222.92;124904;1097;64465;-82
2021/05/09 05:28:25;;;;;;;23.33;20.13;;;;;;;15.52;48.54;99226.05;124858;1095;64399;-83
2021/05/09 05:30:53;;;;;;;21.33;19.03;;;;;;;15.65;47.38;99220.50;124802;1101;64450;-81
2021/05/09 05:33:32;;;;;;;20.70;18.60;;;;;;;15.87;47.57;99227.63;124827;1101;64477;-81
2021/05/09 05:36:01;;;;;;;21.03;18.70;;;;;;;16.15;47.50;99218.89;124871;1101;64361;-81
2021/05/09 05:38:29;;;;;;;20.30;17.60;;;;;;;16.44;47.18;99224.42;124902;1096;64300;-82
2021/05/09 05:40:57;;;;;;;20.30;17.93;;;;;;;16.68;46.20;99224.09;124884;1097;64323;-81
2021/05/09 05:43:29;;;;;;;21.85;18.80;;;;;;;16.78;46.12;99226.86;124869;1096;64332;-83
2021/05/09 05:45:58;;;;;;;20.60;18.60;;;;;;;16.97;46.11;99220.68;124859;1096;64336;-81
2021/05/09 05:48:26;;;;;;;20.55;17.63;;;;;;;17.13;44.83;99222.84;124900;1101;65483;-82
2021/05/09 05:50:54;;;;;;;18.23;16.33;;;;;;;17.13;45.09;99230.92;124845;1096;64336;-83
2021/05/09 05:53:24;;;;;;;16.43;14.47;;;;;;;17.11;43.06;99227.51;124851;1102;64329;-81
2021/05/09 05:55:53;;;;;;;17.67;15.87;;;;;;;17.00;44.07;99239.25;124801;1097;64365;-81
2021/05/09 05:58:21;;;;;;;17.07;15.07;;;;;;;17.10;44.18;99226.66;124793;1101;64349;-82
2021/05/09 06:00:49;;;;;;;16.67;15.00;;;;;;;17.21;44.08;99222.99;124889;1101;64252;-82
2021/05/09 06:03:16;;;;;;;18.40;14.57;;;;;;;17.27;43.95;99210.80;124832;1101;64419;-82
2021/05/09 06:05:47;;;;;;;15.50;13.57;;;;;;;17.37;43.32;99210.83;124839;1097;64351;-82
2021/05/09 06:08:18;;;;;;;16.43;14.30;;;;;;;17.48;43.55;99221.45;124827;1101;64371;-82
2021/05/09 06:10:46;;;;;;;16.80;14.23;;;;;;;17.60;43.36;99219.49;124864;1101;64379;-81
2021/05/09 06:13:13;;;;;;;17.13;13.97;;;;;;;17.66;43.32;99213.52;124841;1101;64381;-80
2021/05/09 06:15:41;;;;;;;17.55;13.70;;;;;;;17.78;43.37;99220.48;124846;1101;64641;-82
2021/05/09 06:18:09;;;;;;;14.70;12.70;;;;;;;17.85;42.39;99209.98;124827;1096;64383;-81
2021/05/09 06:20:36;;;;;;;14.23;12.70;;;;;;;17.87;42.75;99208.00;124860;1101;64246;-81
2021/05/09 06:23:04;;;;;;;14.60;12.80;;;;;;;17.92;42.58;99205.73;124906;1101;64412;-82
2021/05/09 06:25:32;;;;;;;14.50;12.40;;;;;;;17.98;43.16;99207.84;124871;1097;64470;-81
2021/05/09 06:28:00;;;;;;;15.53;13.63;;;;;;;18.07;42.34;99200.75;124907;1097;64329;-82
2021/05/09 06:30:27;;;;;;;15.37;13.67;;;;;;;18.03;41.91;99197.47;124856;1101;64243;-82
2021/05/09 06:32:54;;;;;;;13.83;12.10;;;;;;;18.02;42.17;99203.02;124815;1101;64358;-81
2021/05/09 06:35:22;;;;;;;13.97;11.90;;;;;;;18.02;42.09;99203.88;124810;1101;64377;-82
2021/05/09 06:37:53;;;;;;;13.50;11.90;;;;;;;18.13;41.96;99190.20;124844;1101;64475;-81
2021/05/09 06:40:21;;;;;;;12.90;11.43;;;;;;;18.21;42.15;99194.88;124830;1096;64370;-81
2021/05/09 06:42:59;;;;;;;13.60;12.15;;;;;;;18.23;42.16;99194.73;124839;1101;64336;-82
2021/05/09 06:45:28;;;;;;;13.05;11.70;;;;;;;18.28;42.17;99190.59;124835;1101;64306;-82
2021/05/09 06:47:56;;;;;;;15.27;11.90;;;;;;;18.30;42.21;99188.61;124810;1101;64333;-82
2021/05/09 06:50:25;;;;;;;12.93;11.50;;;;;;;18.41;41.96;99190.27;124860;1101;64467;-82
2021/05/09 06:52:52;;;;;;;12.97;11.67;;;;;;;18.47;41.95;99189.67;124831;1101;64338;-82
2021/05/09 06:55:20;;;;;;;12.43;10.77;;;;;;;18.52;42.01;99192.78;124857;1096;64339;-81
2021/05/09 06:57:47;;;;;;;11.67;10.10;;;;;;;18.49;41.71;99184.98;124823;1101;64303;-82
2021/05/09 07:00:17;;;;;;;11.33;10.23;;;;;;;18.54;41.70;99189.95;124874;1095;64281;-81
2021/05/09 07:02:44;;;;;;;12.57;10.10;;;;;;;18.57;41.43;99190.48;124873;1101;64487;-82
2021/05/09 07:05:12;;;;;;;10.87;9.50;;;;;;;18.57;41.48;99190.48;124843;1101;64351;-81
2021/05/09 07:07:53;;;;;;;8.53;7.60;;;;;;;18.30;41.57;99183.22;124904;1101;64272;-81
2021/05/09 07:10:24;;;;;;;9.17;6.97;;;;;;;18.06;41.94;99182.84;124823;1096;64275;-81
2021/05/09 07:12:54;;;;;;;8.33;7.43;;;;;;;17.83;41.28;99179.65;124806;1101;64421;-82
2021/05/09 07:15:32;;;;;;;8.73;7.83;;;;;;;17.61;42.13;99168.13;124856;1102;64400;-82
2021/05/09 07:18:10;;;;;;;4.87;3.83;;;;;;;17.55;41.52;99171.41;124839;1094;64396;-81
2021/05/09 07:20:42;;;;;;;3.13;2.73;;;;;;;17.54;42.06;99164.33;124843;1096;64332;-82
2021/05/09 07:23:12;;;;;;;4.33;3.80;;;;;;;17.63;41.42;99165.30;124835;1101;64357;-82
2021/05/09 07:25:40;;;;;;;5.35;3.00;;;;;;;17.62;41.55;99175.23;124914;1095;64278;-82
2021/05/09 07:28:12;;;;;;;3.53;3.23;;;;;;;17.63;40.40;99171.53;124860;1101;64355;-81
2021/05/09 07:30:42;;;;;;;1.60;1.43;;;;;;;17.53;39.83;99170.69;124819;1101;64275;-81
2021/05/09 07:33:12;;;;;;;1.10;1.10;;;;;;;17.42;39.75;99168.98;124872;1097;64425;-81
2021/05/09 07:36:02;;;;;;;1.40;1.30;;;;;;;17.33;39.35;99161.78;124859;1101;64361;-81
2021/05/09 07:38:29;;;;;;;2.70;1.23;;;;;;;17.34;39.69;99171.55;124790;1101;64477;-82
2021/05/09 07:40:56;;;;;;;1.30;1.20;;;;;;;17.35;39.20;99159.77;124844;1096;64314;-82
2021/05/09 07:43:24;;;;;;;1.77;1.30;;;;;;;17.37;38.34;99162.33;124850;1097;64342;-81
2021/05/09 07:45:51;;;;;;;1.03;1.00;;;;;;;17.34;38.65;99158.08;124819;1097;64249;-81
2021/05/09 07:48:19;;;;;;;1.37;1.27;;;;;;;17.38;38.53;99159.51;124822;1101;64306;-81
2021/05/09 07:50:46;;;;;;;1.30;1.07;;;;;;;17.47;38.49;99166.72;124833;1101;64343;-82
2021/05/09 07:53:14;;;;;;;2.87;1.00;;;;;;;17.55;38.48;99160.63;124830;1095;64754;-82
2021/05/09 07:55:41;;;;;;;1.27;1.17;;;;;;;17.62;38.54;99164.45;124809;1101;64425;-82
2021/05/09 07:58:20;;;;;;;1.30;1.20;;;;;;;17.74;38.76;99160.59;124909;1097;64272;-82
2021/05/09 08:00:49;;;;;;;1.73;1.60;;;;;;;17.89;38.45;99161.03;124824;1101;64320;-82
2021/05/09 08:03:17;;;;;;;1.73;1.40;;;;;;;18.02;39.25;99152.63;124863;1096;64365;-82
2021/05/09 08:05:45;;;;;;;0.90;0.90;;;;;;;18.14;38.59;99147.89;124836;1101;64467;-81
2021/05/09 08:08:13;;;;;;;1.73;1.50;;;;;;;18.24;38.41;99154.11;124850;1095;64333;-81
2021/05/09 08:10:42;;;;;;;1.30;1.00;;;;;;;18.27;38.10;99145.72;124858;1096;64326;-82
2021/05/09 08:13:12;;;;;;;1.63;1.50;;;;;;;18.34;38.75;99137.89;124970;1096;64362;-82
2021/05/09 08:15:40;;;;;;;2.03;1.50;;;;;;;18.46;38.97;99143.93;124888;1097;64332;-82
2021/05/09 08:18:08;;;;;;;1.40;1.10;;;;;;;18.54;38.70;99146.76;124846;1101;64480;-80
2021/05/09 08:20:36;;;;;;;1.13;0.97;;;;;;;18.61;37.71;99137.04;124877;1096;64362;-81
2021/05/09 08:23:05;;;;;;;1.90;1.30;;;;;;;18.48;37.12;99133.84;124949;1096;64759;-81
2021/05/09 08:25:32;;;;;;;2.90;1.37;;;;;;;18.47;37.82;99141.09;124844;1097;64358;-81
2021/05/09 08:27:59;;;;;;;2.07;1.73;;;;;;;18.50;37.90;99140.79;124818;1096;64288;-81
2021/05/09 08:30:27;;;;;;;1.17;1.10;;;;;;;18.54;37.13;99139.50;124859;1096;64339;-82
2021/05/09 08:32:55;;;;;;;2.60;1.50;;;;;;;18.52;37.06;99137.95;124822;1101;64318;-82
2021/05/09 08:35:22;;;;;;;1.50;1.37;;;;;;;18.60;37.76;99140.75;124852;1096;64339;-81
2021/05/09 08:37:49;;;;;;;1.30;1.20;;;;;;;18.70;37.92;99140.70;124848;1097;64259;-81
2021/05/09 08:40:17;;;;;;;2.40;1.10;;;;;;;18.81;38.06;99137.82;124820;1096;64407;-82
2021/05/09 08:42:48;;;;;;;2.85;1.30;;;;;;;18.89;37.60;99137.06;124856;1101;64471;-82
2021/05/09 08:45:17;;;;;;;1.33;1.00;;;;;;;18.94;37.07;99129.36;124849;1097;64355;-82
2021/05/09 08:47:45;;;;;;;1.40;1.23;;;;;;;19.01;37.35;99138.52;124912;1101;64278;-82
2021/05/09 08:50:21;;;;;;;1.77;0.97;;;;;;;19.16;37.68;99136.99;124855;1096;64339;-81
2021/05/09 08:52:50;;;;;;;1.03;0.93;;;;;;;19.25;37.80;99133.38;124948;1095;64332;-81
2021/05/09 08:55:27;;;;;;;1.30;1.13;;;;;;;19.33;36.94;99138.02;124868;1097;64339;-81
2021/05/09 08:57:56;;;;;;;0.83;0.80;;;;;;;19.32;36.52;99144.41;124782;1095;64403;-81
2021/05/09 09:00:25;;;;;;;1.33;1.25;;;;;;;19.28;35.67;99141.17;124826;1095;64278;-82
2021/05/09 09:02:53;;;;;;;0.63;0.60;;;;;;;19.27;35.92;99146.72;124880;1101;64355;-82
2021/05/09 09:05:44;;;;;;;1.73;1.00;;;;;;;19.32;36.33;99135.45;124828;1097;64255;-82
2021/05/09 09:08:15;;;;;;;1.67;1.20;;;;;;;19.38;35.26;99138.40;124908;1101;64461;-82
2021/05/09 09:10:51;;;;;;;1.77;0.90;;;;;;;19.47;35.93;99142.02;124997;1101;64323;-82
2021/05/09 09:13:32;;;;;;;1.10;1.00;;;;;;;19.57;35.95;99148.18;124948;1101;64358;-81
2021/05/09 09:16:04;;;;;;;0.80;0.80;;;;;;;19.63;34.98;99141.30;124795;1101;64329;-82
2021/05/09 09:18:43;;;;;;;0.80;0.80;;;;;;;19.65;35.00;99133.88;124838;1097;64446;-81
2021/05/09 09:21:23;;;;;;;1.53;1.03;;;;;;;19.67;34.43;99138.16;124831;1101;64408;-82
2021/05/09 09:23:56;;;;;;;1.10;0.93;;;;;;;19.66;34.95;99135.56;124836;1095;64323;-82
2021/05/09 09:26:32;;;;;;;0.90;0.90;;;;;;;19.72;35.58;99135.84;124855;1101;64338;-82
2021/05/09 09:29:22;;;;;;;1.73;0.80;;;;;;;19.80;34.80;99142.29;124868;1101;64338;-82
2021/05/09 09:32:02;;;;;;;1.60;1.00;;;;;;;19.80;35.62;99134.17;124764;1095;64326;-81
2021/05/09 09:34:37;;;;;;;1.17;0.90;;;;;;;19.92;35.38;99131.05;124849;1095;64351;-81
2021/05/09 09:37:05;;;;;;;1.70;1.00;;;;;;;19.88;35.15;99131.52;124849;1096;64345;-81
2021/05/09 09:39:53;;;;;;;1.10;1.00;;;;;;;19.94;34.86;99129.05;124834;1096;64333;-81
2021/05/09 09:42:45;;;;;;;1.27;1.17;;;;;;;20.01;34.70;99123.86;124907;1095;64333;-82
2021/05/09 09:45:16;;;;;;;1.30;0.90;;;;;;;20.11;33.72;99126.43;124956;1096;64262;-82
2021/05/09 09:47:47;;;;;;;1.85;1.05;;;;;;;20.05;34.85;99135.20;125019;1101;64336;-86
2021/05/09 09:50:33;;;;;;;1.20;1.10;;;;;;;20.11;34.70;99123.73;124951;1101;64329;-82
2021/05/09 09:53:01;;;;;;;1.23;1.13;;;;;;;20.24;34.85;99121.42;124880;1101;64246;-83
2021/05/09 09:55:29;;;;;;;1.40;0.80;;;;;;;20.27;34.85;99121.09;124861;1096;64326;-84
2021/05/09 09:58:04;;;;;;;1.13;0.80;;;;;;;20.32;34.35;99115.20;124848;1096;64419;-80
2021/05/09 10:00:31;;;;;;;1.20;0.80;;;;;;;20.32;34.38;99112.50;124874;1101;64435;-81
2021/05/09 10:03:00;;;;;;;1.90;0.90;;;;;;;20.34;34.92;99107.78;124818;1101;64357;-83
2021/05/09 10:05:27;;;;;;;1.37;0.70;;;;;;;20.43;35.14;99095.96;124836;1101;64246;-83
2021/05/09 10:07:54;;;;;;;1.53;0.90;;;;;;;20.42;33.88;99090.73;124809;1096;64355;-82
2021/05/09 10:10:22;;;;;;;1.40;1.07;;;;;;;20.38;34.65;99101.05;124797;1101;64435;-82
2021/05/09 10:12:49;;;;;;;0.73;0.73;;;;;;;20.51;34.98;99090.60;124829;1097;64450;-82
2021/05/09 10:15:17;;;;;;;1.00;0.93;;;;;;;20.66;35.16;99090.83;124864;1095;64249;-81
2021/05/09 10:17:47;;;;;;;1.30;1.20;;;;;;;20.70;34.97;99089.50;124827;1101;64409;-81
2021/05/09 10:20:15;;;;;;;0.80;0.80;;;;;;;20.74;34.59;99096.27;124819;1097;64312;-81
2021/05/09 10:22:42;;;;;;;0.90;0.90;;;;;;;20.82;35.31;99090.86;124840;1101;64333;-81
2021/05/09 10:25:46;;;;;;;1.47;0.90;;;;;;;20.93;35.18;99081.61;124834;1097;64456;-82
2021/05/09 10:28:16;;;;;;;1.65;1.00;;;;;;;21.04;35.13;99083.14;124803;1097;64332;-81
2021/05/09 10:30:58;;;;;;;0.80;0.80;;;;;;;21.06;34.45;99091.92;124861;1096;64316;-81
2021/05/09 10:33:40;;;;;;;1.20;0.95;;;;;;;21.02;34.41;99079.75;124825;1101;64362;-81
2021/05/09 10:36:33;;;;;;;1.00;0.90;;;;;;;21.10;35.01;99085.17;124816;1101;64323;-81
2021/05/09 10:39:18;;;;;;;1.30;1.20;;;;;;;21.13;33.95;99086.70;124890;1101;64361;-81
2021/05/09 10:41:55;;;;;;;1.97;1.30;;;;;;;21.16;34.60;99086.36;124826;1101;64337;-81
2021/05/09 10:44:38;;;;;;;0.90;0.90;;;;;;;21.24;34.90;99087.20;124912;1101;64300;-81
2021/05/09 10:47:07;;;;;;;1.43;1.00;;;;;;;21.35;34.38;99096.02;124823;1101;64336;-81
2021/05/09 10:49:34;;;;;;;1.18;1.00;;;;;;;21.32;34.40;99086.36;124846;1101;64358;-82
2021/05/09 10:52:39;;;;;;;0.95;0.70;;;;;;;21.36;35.48;99086.89;124807;1101;64555;-81
2021/05/09 10:55:36;;;;;;;3.17;0.97;;;;;;;21.45;34.93;99075.03;124830;1102;64319;-80
2021/05/09 10:58:05;;;;;;;0.77;0.70;;;;;;;21.53;34.74;99068.77;124772;1101;64329;-81
2021/05/09 11:00:58;;;;;;;1.53;0.90;;;;;;;21.61;34.61;99077.73;124853;1097;64342;-81
2021/05/09 11:03:38;;;;;;;1.40;0.90;;;;;;;21.57;34.12;99072.84;124897;1095;64285;-82
2021/05/09 11:06:06;;;;;;;1.20;0.90;;;;;;;21.57;34.73;99064.70;124888;1101;64457;-81
2021/05/09 11:08:42;;;;;;;1.10;1.00;;;;;;;21.58;33.54;99061.80;124942;1097;64326;-81
2021/05/09 11:11:42;;;;;;;1.25;0.90;;;;;;;21.61;34.78;99074.17;124963;1096;64339;-81
2021/05/09 11:14:13;;;;;;;1.80;1.20;;;;;;;21.58;34.22;99063.67;124841;1101;64419;-82
2021/05/09 11:16:43;;;;;;;1.40;0.90;;;;;;;21.65;34.67;99072.83;124852;1101;64379;-81
2021/05/09 11:19:13;;;;;;;2.13;0.90;;;;;;;21.72;34.47;99070.25;124906;1101;64355;-81
2021/05/09 11:21:46;;;;;;;2.83;0.90;;;;;;;21.73;34.42;99066.55;125020;1096;64339;-86
2021/05/09 11:24:31;;;;;;;1.05;0.80;;;;;;;21.80;34.89;99068.39;125331;1101;64299;-85
2021/05/09 11:27:14;;;;;;;2.60;1.13;;;;;;;21.89;34.46;99061.91;125042;1096;64253;-86
2021/05/09 11:29:42;;;;;;;1.13;1.00;;;;;;;21.84;33.75;99069.73;124968;1101;64419;-85
2021/05/09 11:32:12;;;;;;;3.10;1.07;;;;;;;21.79;33.73;99065.84;125054;1096;64256;-86